Terminal Aerodrome Forecast
Issued by NWS

Home | Current Version | Previous Version | Text Only | Print | Product List | Glossary On
Versions: 1 2 3 4 5 6 7 8 9 10 11 12 13 14 15 16 17 18 19 20 21 22
530
FTUS43 KAPX 261432 AAA
TAFMBL
TAF AMD
KMBL 261432Z 2615/2712 20012KT 2SM -SHSN SCT017 BKN025
     FM261700 21012G21KT P6SM VCSH BKN025 OVC035
     FM270300 28010KT P6SM BKN040=

USA.gov is the U.S. government's official web portal to all federal, state and local government web resources and services.